Time;durP1;ratioP1;P1;durP2;ratioP2;P2;SDS_P1;SDS_P2;PMS_P1;PMS_P2;Temp;Humidity;BMP_temperature;BMP_pressure;BME280_temperature;BME280_humidity;BME280_pressure;Samples;Min_cycle;Max_cycle;Signal;HPM_P1;HPM_P2
2023/03/11 00:02:13;;;;;;;0.60;0.60;;;4.20;97.50;;;;;;5054988;28;20190;-70
2023/03/11 00:04:39;;;;;;;0.90;0.90;;;4.10;97.30;;;;;;5055342;28;20193;-69
2023/03/11 00:07:09;;;;;;;0.50;0.50;;;4.10;97.40;;;;;;5055338;28;20642;-68
2023/03/11 00:09:35;;;;;;;0.50;0.47;;;4.00;97.20;;;;;;5054954;28;20543;-68
2023/03/11 00:12:02;;;;;;;1.60;1.50;;;3.80;97.40;;;;;;5054742;28;20231;-71
2023/03/11 00:14:27;;;;;;;0.40;0.40;;;3.90;98.00;;;;;;5054904;28;20205;-69
2023/03/11 00:16:56;;;;;;;0.40;0.40;;;4.00;97.90;;;;;;5054963;28;20202;-70
2023/03/11 00:19:22;;;;;;;0.50;0.50;;;4.00;97.60;;;;;;5055065;28;20405;-69
2023/03/11 00:21:48;;;;;;;0.40;0.40;;;4.00;97.60;;;;;;5054542;28;20235;-70
2023/03/11 00:24:13;;;;;;;1.33;1.33;;;4.10;97.70;;;;;;5054600;28;20174;-67
2023/03/11 00:26:39;;;;;;;0.40;0.40;;;4.30;97.60;;;;;;5054504;28;20184;-69
2023/03/11 00:29:04;;;;;;;0.60;0.60;;;4.10;97.10;;;;;;5054576;28;20208;-68
2023/03/11 00:31:30;;;;;;;0.40;0.40;;;4.10;97.00;;;;;;5054549;28;20174;-70
2023/03/11 00:33:56;;;;;;;3.38;3.28;;;3.90;97.40;;;;;;5053623;28;20558;-70
2023/03/11 00:36:30;;;;;;;0.40;0.40;;;3.90;97.50;;;;;;5054400;28;20181;-69
2023/03/11 00:38:57;;;;;;;0.40;0.40;;;3.90;97.70;;;;;;5037084;28;20211;-70
2023/03/11 00:41:23;;;;;;;0.40;0.40;;;3.90;97.40;;;;;;5053958;28;20198;-68
2023/03/11 00:43:49;;;;;;;0.98;0.50;;;3.70;97.50;;;;;;5054554;28;20241;-70
2023/03/11 00:46:14;;;;;;;0.50;0.40;;;3.70;98.00;;;;;;5053782;28;20209;-70
2023/03/11 00:48:40;;;;;;;0.40;0.40;;;3.70;97.80;;;;;;5054491;28;20198;-70
2023/03/11 00:51:15;;;;;;;1.03;0.93;;;3.60;98.00;;;;;;5054211;28;20162;-70
2023/03/11 00:53:41;;;;;;;0.82;0.82;;;3.80;98.10;;;;;;5036144;28;20682;-69
2023/03/11 00:56:09;;;;;;;0.60;0.60;;;3.70;97.90;;;;;;5054077;28;20181;-67
2023/03/11 00:58:34;;;;;;;0.73;0.73;;;3.60;97.70;;;;;;5054198;28;20532;-70
2023/03/11 01:01:06;;;;;;;0.90;0.90;;;3.50;97.80;;;;;;5053913;28;20178;-70
2023/03/11 01:03:31;;;;;;;0.60;0.50;;;3.60;98.20;;;;;;5054456;28;20190;-68
2023/03/11 01:05:57;;;;;;;1.23;1.23;;;3.70;98.20;;;;;;5054440;28;20174;-70
2023/03/11 01:08:23;;;;;;;0.43;0.43;;;3.70;97.70;;;;;;5054137;28;20587;-70
2023/03/11 01:10:48;;;;;;;1.13;0.70;;;3.70;97.30;;;;;;5035655;28;20220;-70
2023/03/11 01:13:14;;;;;;;0.93;0.93;;;3.50;97.60;;;;;;5053971;28;20197;-69
2023/03/11 01:15:39;;;;;;;0.40;0.40;;;3.40;97.90;;;;;;5054065;28;20168;-70
2023/03/11 01:18:06;;;;;;;0.40;0.40;;;3.50;98.10;;;;;;5053915;28;20174;-69
2023/03/11 01:20:31;;;;;;;0.50;0.50;;;3.60;98.20;;;;;;5053769;28;20170;-69
2023/03/11 01:22:57;;;;;;;0.60;0.60;;;3.70;97.90;;;;;;5053571;28;20194;-70
2023/03/11 01:25:23;;;;;;;5.80;2.80;;;3.40;97.50;;;;;;5053690;28;20184;-69
2023/03/11 01:27:49;;;;;;;0.98;0.93;;;3.40;98.00;;;;;;5035781;28;20540;-69
2023/03/11 01:30:19;;;;;;;0.33;0.33;;;3.40;97.70;;;;;;5053652;28;20200;-70
2023/03/11 01:32:45;;;;;;;0.55;0.50;;;3.40;97.50;;;;;;5053651;28;20194;-69
2023/03/11 01:35:13;;;;;;;0.73;0.73;;;3.30;97.50;;;;;;5054154;28;20170;-69
2023/03/11 01:37:39;;;;;;;0.30;0.30;;;3.20;98.00;;;;;;5053366;28;20175;-70
2023/03/11 01:40:07;;;;;;;0.40;0.40;;;3.10;98.50;;;;;;5053563;28;20208;-70
2023/03/11 01:42:33;;;;;;;0.50;0.50;;;3.20;98.70;;;;;;5035344;28;20205;-68
2023/03/11 01:44:58;;;;;;;0.50;0.50;;;3.30;98.50;;;;;;5053771;28;20185;-69
2023/03/11 01:47:42;;;;;;;0.60;0.60;;;3.50;98.40;;;;;;5053539;28;20192;-68
2023/03/11 01:50:11;;;;;;;0.57;0.57;;;3.60;97.80;;;;;;5053346;28;20521;-68
2023/03/11 01:52:37;;;;;;;0.50;0.50;;;3.60;97.40;;;;;;5053321;28;20194;-70
2023/03/11 01:55:05;;;;;;;0.40;0.40;;;3.60;97.40;;;;;;5053635;28;20181;-70
2023/03/11 01:57:31;;;;;;;1.08;1.08;;;3.70;97.10;;;;;;5053661;28;20638;-70
2023/03/11 01:59:59;;;;;;;0.80;0.80;;;3.60;97.00;;;;;;5053651;28;20189;-69
2023/03/11 02:02:35;;;;;;;1.02;1.02;;;3.50;96.80;;;;;;5052829;28;20437;-70
2023/03/11 02:05:02;;;;;;;0.40;0.40;;;3.40;96.60;;;;;;5053296;28;20166;-71
2023/03/11 02:07:28;;;;;;;0.70;0.70;;;3.30;96.70;;;;;;5053225;28;20715;-70
2023/03/11 02:09:54;;;;;;;0.50;0.50;;;3.40;97.10;;;;;;5053150;28;20253;-69
2023/03/11 02:12:20;;;;;;;0.50;0.50;;;3.30;97.10;;;;;;5053122;28;20498;-70
2023/03/11 02:14:49;;;;;;;0.60;0.60;;;3.10;96.70;;;;;;5053671;28;20174;-67
2023/03/11 02:17:15;;;;;;;0.40;0.40;;;3.20;97.30;;;;;;5053046;28;20167;-70
2023/03/11 02:19:48;;;;;;;0.40;0.40;;;3.30;97.50;;;;;;5053179;28;20506;-68
2023/03/11 02:22:14;;;;;;;0.50;0.50;;;3.30;97.30;;;;;;5053085;28;20486;-69
2023/03/11 02:24:54;;;;;;;0.40;0.40;;;3.30;97.40;;;;;;5053443;28;20163;-71
2023/03/11 02:27:21;;;;;;;0.68;0.55;;;3.40;97.20;;;;;;5053457;28;20174;-69
2023/03/11 02:29:50;;;;;;;0.95;0.95;;;3.50;97.10;;;;;;5053155;28;20517;-68
2023/03/11 02:32:17;;;;;;;0.70;0.70;;;3.60;97.00;;;;;;5052702;28;20257;-70
2023/03/11 02:34:42;;;;;;;0.70;0.70;;;3.50;96.30;;;;;;5053082;28;20197;-68
2023/03/11 02:37:11;;;;;;;0.40;0.40;;;3.40;96.50;;;;;;5053155;28;20615;-70
2023/03/11 02:39:46;;;;;;;0.40;0.40;;;3.40;96.60;;;;;;5053362;28;20301;-69
2023/03/11 02:42:13;;;;;;;1.35;1.02;;;3.40;96.40;;;;;;5052612;28;20594;-68
2023/03/11 02:44:42;;;;;;;0.50;0.50;;;3.40;96.00;;;;;;5052933;28;20170;-70
2023/03/11 02:47:09;;;;;;;0.70;0.70;;;3.40;96.00;;;;;;5052952;28;20498;-69
2023/03/11 02:49:35;;;;;;;0.30;0.30;;;3.40;96.10;;;;;;5053135;28;20188;-70
2023/03/11 02:52:01;;;;;;;0.40;0.40;;;3.40;95.80;;;;;;5052612;28;20611;-70
2023/03/11 02:54:27;;;;;;;0.30;0.30;;;3.40;95.40;;;;;;5052802;28;20178;-69
2023/03/11 02:56:53;;;;;;;0.30;0.30;;;3.30;95.50;;;;;;5052715;28;20180;-68
2023/03/11 02:59:18;;;;;;;2.03;1.20;;;3.40;95.80;;;;;;5055987;28;20518;-70
2023/03/11 03:01:44;;;;;;;0.30;0.30;;;3.30;95.40;;;;;;5056254;28;20184;-70
2023/03/11 03:04:10;;;;;;;0.40;0.40;;;3.20;95.60;;;;;;5056754;28;20539;-69
2023/03/11 03:06:35;;;;;;;1.23;1.23;;;3.20;95.70;;;;;;5056649;28;20196;-68
2023/03/11 03:09:01;;;;;;;0.60;0.60;;;3.10;95.60;;;;;;5056593;28;20452;-68
2023/03/11 03:11:27;;;;;;;0.60;0.60;;;3.20;95.70;;;;;;5055939;28;20174;-71
2023/03/11 03:13:52;;;;;;;0.83;0.83;;;3.10;95.80;;;;;;5038258;28;20544;-70
2023/03/11 03:16:18;;;;;;;1.70;0.87;;;3.10;96.30;;;;;;5056250;28;20169;-68
2023/03/11 03:18:43;;;;;;;0.30;0.30;;;3.20;95.80;;;;;;5056187;28;20312;-68
2023/03/11 03:21:09;;;;;;;0.30;0.30;;;3.10;95.70;;;;;;5055645;28;20173;-70
2023/03/11 03:23:36;;;;;;;0.80;0.80;;;3.20;96.00;;;;;;5055879;28;20201;-68
2023/03/11 03:26:03;;;;;;;0.50;0.50;;;3.20;96.20;;;;;;5055930;28;20170;-69
2023/03/11 03:28:29;;;;;;;0.40;0.40;;;3.20;96.30;;;;;;5055811;28;20202;-70
2023/03/11 03:30:54;;;;;;;0.93;0.93;;;3.20;96.30;;;;;;5055546;28;20177;-69
2023/03/11 03:33:20;;;;;;;0.50;0.50;;;3.20;96.10;;;;;;5055758;28;20619;-69
2023/03/11 03:35:45;;;;;;;0.40;0.40;;;3.10;96.10;;;;;;5056135;28;20162;-70
2023/03/11 03:38:12;;;;;;;0.40;0.40;;;3.10;96.00;;;;;;5056108;28;20176;-69
2023/03/11 03:40:38;;;;;;;0.82;0.82;;;2.90;96.10;;;;;;5055227;28;20218;-70
2023/03/11 03:43:04;;;;;;;0.77;0.77;;;3.00;96.50;;;;;;5055400;28;20209;-70
2023/03/11 03:45:30;;;;;;;0.35;0.35;;;3.10;96.70;;;;;;5055648;28;20189;-68
2023/03/11 03:47:55;;;;;;;0.40;0.40;;;3.10;96.60;;;;;;5055716;28;20205;-70
2023/03/11 03:50:21;;;;;;;0.30;0.30;;;3.10;96.80;;;;;;5055613;28;20158;-69
2023/03/11 03:52:47;;;;;;;1.00;1.00;;;3.00;97.00;;;;;;5055447;28;20233;-70
2023/03/11 03:55:12;;;;;;;0.30;0.30;;;3.00;97.40;;;;;;5055423;28;20233;-69
2023/03/11 03:57:38;;;;;;;0.50;0.50;;;3.00;97.30;;;;;;5055336;28;20196;-69
2023/03/11 04:00:07;;;;;;;0.77;0.77;;;3.00;97.60;;;;;;5055396;28;20170;-68
2023/03/11 04:02:33;;;;;;;0.40;0.40;;;3.10;97.50;;;;;;5055331;28;20429;-70
2023/03/11 04:04:59;;;;;;;0.40;0.40;;;3.00;97.50;;;;;;5055554;28;20649;-70
2023/03/11 04:07:25;;;;;;;0.40;0.40;;;3.10;97.80;;;;;;5055224;28;20881;-70
2023/03/11 04:09:50;;;;;;;2.73;0.60;;;3.00;97.70;;;;;;5054956;28;20608;-70
2023/03/11 04:12:16;;;;;;;0.40;0.40;;;2.90;97.90;;;;;;5054640;28;20288;-69
2023/03/11 04:14:42;;;;;;;0.73;0.73;;;2.90;98.20;;;;;;5055185;28;20181;-70
2023/03/11 04:17:13;;;;;;;0.37;0.37;;;2.90;98.30;;;;;;5055115;28;20245;-70
2023/03/11 04:19:38;;;;;;;0.60;0.60;;;2.90;98.40;;;;;;5055288;28;20858;-70
2023/03/11 04:22:04;;;;;;;0.40;0.40;;;2.90;98.60;;;;;;5054553;28;20190;-69
2023/03/11 04:24:30;;;;;;;0.55;0.55;;;2.90;98.80;;;;;;5036749;28;20892;-68
2023/03/11 04:26:56;;;;;;;0.40;0.40;;;2.80;99.00;;;;;;5054801;28;20182;-70
2023/03/11 04:29:21;;;;;;;0.40;0.40;;;2.90;99.00;;;;;;5054797;28;20201;-70
2023/03/11 04:31:47;;;;;;;0.50;0.50;;;2.90;99.00;;;;;;5036370;28;20181;-68
2023/03/11 04:34:13;;;;;;;0.40;0.40;;;2.90;99.20;;;;;;5054451;28;20197;-69
2023/03/11 04:36:39;;;;;;;0.38;0.38;;;2.90;99.10;;;;;;5054406;28;20198;-70
2023/03/11 04:39:05;;;;;;;0.30;0.30;;;3.00;99.10;;;;;;5054457;28;20220;-69
2023/03/11 04:41:31;;;;;;;0.40;0.40;;;3.10;99.20;;;;;;5054368;28;20173;-70
2023/03/11 04:43:59;;;;;;;0.30;0.30;;;3.00;98.40;;;;;;5054573;28;20784;-68
2023/03/11 04:46:25;;;;;;;0.73;0.73;;;2.60;96.70;;;;;;5054672;28;20174;-70
2023/03/11 04:48:51;;;;;;;0.40;0.40;;;2.50;96.90;;;;;;5054296;28;20208;-69
2023/03/11 04:51:16;;;;;;;0.40;0.40;;;2.20;96.40;;;;;;5054030;28;20901;-68
2023/03/11 04:53:42;;;;;;;0.40;0.40;;;2.20;97.10;;;;;;5054137;28;20431;-69
2023/03/11 04:56:07;;;;;;;2.10;1.20;;;2.20;97.30;;;;;;5054260;28;20200;-69
2023/03/11 04:58:33;;;;;;;0.40;0.40;;;2.20;97.30;;;;;;5054256;28;20378;-70
2023/03/11 05:00:59;;;;;;;0.50;0.43;;;2.20;96.80;;;;;;5053948;28;20169;-68
2023/03/11 05:03:24;;;;;;;0.40;0.40;;;2.20;97.00;;;;;;5053884;28;20215;-70
2023/03/11 05:05:52;;;;;;;0.40;0.40;;;2.20;96.90;;;;;;5053893;28;20183;-68
2023/03/11 05:08:17;;;;;;;0.38;0.38;;;2.10;96.80;;;;;;5053795;28;20273;-70
2023/03/11 05:10:43;;;;;;;0.30;0.30;;;1.90;96.40;;;;;;5053789;28;20209;-69
2023/03/11 05:13:09;;;;;;;0.93;0.70;;;1.80;96.50;;;;;;5054034;28;20200;-70
2023/03/11 05:15:35;;;;;;;0.40;0.40;;;1.70;96.70;;;;;;5054165;28;20172;-69
2023/03/11 05:18:01;;;;;;;0.30;0.30;;;1.80;96.80;;;;;;5036317;28;20437;-69
2023/03/11 05:20:27;;;;;;;0.70;0.70;;;1.90;96.90;;;;;;5052899;28;20169;-70
2023/03/11 05:22:52;;;;;;;1.10;1.00;;;2.00;97.00;;;;;;5053649;28;20903;-69
2023/03/11 05:25:18;;;;;;;0.80;0.80;;;2.00;96.70;;;;;;5053755;28;20183;-69
2023/03/11 05:27:44;;;;;;;0.40;0.40;;;2.10;96.20;;;;;;5053726;28;20250;-69
2023/03/11 05:30:10;;;;;;;0.30;0.30;;;2.10;95.90;;;;;;5053760;28;20166;-70
2023/03/11 05:32:36;;;;;;;0.40;0.40;;;2.10;95.30;;;;;;5053468;28;20431;-70
2023/03/11 05:35:01;;;;;;;0.87;0.87;;;1.90;94.80;;;;;;5053810;28;20511;-71
2023/03/11 05:37:29;;;;;;;0.40;0.40;;;1.90;95.40;;;;;;5053458;28;20172;-69
2023/03/11 05:39:55;;;;;;;0.40;0.40;;;1.90;95.80;;;;;;5053547;28;20172;-69
2023/03/11 05:42:20;;;;;;;0.40;0.40;;;1.90;96.20;;;;;;5053205;28;20198;-70
2023/03/11 05:44:46;;;;;;;0.70;0.70;;;2.00;95.90;;;;;;5053793;28;20257;-70
2023/03/11 05:47:12;;;;;;;0.30;0.30;;;2.10;95.60;;;;;;5035904;28;20167;-70
2023/03/11 05:49:37;;;;;;;0.40;0.40;;;2.10;95.60;;;;;;5053141;28;20204;-68
2023/03/11 05:52:03;;;;;;;0.50;0.50;;;2.10;95.60;;;;;;5053084;28;20576;-69
2023/03/11 05:54:29;;;;;;;0.77;0.73;;;2.20;95.20;;;;;;5053373;28;20181;-70
2023/03/11 05:56:54;;;;;;;0.40;0.40;;;2.20;95.20;;;;;;5053615;28;20176;-69
2023/03/11 05:59:20;;;;;;;0.40;0.40;;;2.20;95.40;;;;;;5053317;28;20519;-68
2023/03/11 06:01:46;;;;;;;0.40;0.40;;;2.10;95.70;;;;;;5052858;28;20162;-70
2023/03/11 06:04:12;;;;;;;0.33;0.33;;;2.00;95.90;;;;;;5053256;28;20499;-70
2023/03/11 06:06:40;;;;;;;0.30;0.30;;;2.00;96.30;;;;;;5053355;28;20173;-70
2023/03/11 06:09:09;;;;;;;0.30;0.30;;;1.90;96.10;;;;;;5053202;28;20456;-69
2023/03/11 06:11:35;;;;;;;0.30;0.30;;;1.90;96.20;;;;;;5052752;28;20166;-71
2023/03/11 06:14:01;;;;;;;0.30;0.30;;;1.80;96.20;;;;;;5053524;28;20189;-68
2023/03/11 06:16:26;;;;;;;1.50;1.50;;;1.90;96.80;;;;;;5053574;28;20166;-69
2023/03/11 06:18:52;;;;;;;1.17;0.70;;;2.00;97.10;;;;;;5053178;28;20622;-70
2023/03/11 06:21:23;;;;;;;0.37;0.37;;;2.20;97.00;;;;;;5052886;28;20162;-69
2023/03/11 06:23:49;;;;;;;0.32;0.32;;;2.20;96.70;;;;;;5053211;28;20670;-68
2023/03/11 06:26:17;;;;;;;4.80;0.82;;;2.20;96.60;;;;;;5052760;28;20189;-70
2023/03/11 06:28:44;;;;;;;0.95;0.95;;;2.30;97.20;;;;;;5053379;28;20247;-70
2023/03/11 06:31:23;;;;;;;0.40;0.40;;;2.40;97.30;;;;;;5052716;28;20201;-69
2023/03/11 06:33:50;;;;;;;0.50;0.50;;;2.30;97.10;;;;;;5055281;28;20296;-70
2023/03/11 06:36:17;;;;;;;0.40;0.40;;;2.40;97.10;;;;;;5056868;28;20257;-70
2023/03/11 06:38:45;;;;;;;0.30;0.30;;;2.60;96.80;;;;;;5056993;28;20256;-69
2023/03/11 06:41:11;;;;;;;0.70;0.70;;;2.50;96.20;;;;;;5038898;28;20528;-71
2023/03/11 06:43:36;;;;;;;0.40;0.40;;;2.40;96.30;;;;;;5056576;28;20201;-70
2023/03/11 06:46:08;;;;;;;0.30;0.30;;;2.40;96.50;;;;;;5056628;28;20170;-70
2023/03/11 06:48:34;;;;;;;0.40;0.40;;;2.40;96.40;;;;;;5056690;28;20198;-68
2023/03/11 06:51:00;;;;;;;0.40;0.40;;;2.40;96.30;;;;;;5056194;28;20678;-69
2023/03/11 06:53:27;;;;;;;0.40;0.40;;;2.50;96.40;;;;;;5056718;28;20193;-69
2023/03/11 06:56:01;;;;;;;0.60;0.60;;;2.60;96.50;;;;;;5056509;28;20400;-69
2023/03/11 06:58:27;;;;;;;0.30;0.30;;;2.70;96.30;;;;;;5056424;28;20182;-69
2023/03/11 07:00:53;;;;;;;0.40;0.40;;;2.90;96.00;;;;;;5055991;28;20166;-69
2023/03/11 07:03:18;;;;;;;0.30;0.30;;;3.00;95.90;;;;;;5056320;28;20424;-69
2023/03/11 07:05:44;;;;;;;0.83;0.83;;;3.00;95.90;;;;;;5056567;28;20178;-70
2023/03/11 07:08:10;;;;;;;0.40;0.40;;;3.10;95.70;;;;;;5038573;28;20197;-68
2023/03/11 07:10:36;;;;;;;0.37;0.37;;;3.10;95.40;;;;;;5056249;28;20432;-69
2023/03/11 07:13:01;;;;;;;0.40;0.40;;;3.10;95.00;;;;;;5056220;28;20543;-68
2023/03/11 07:15:27;;;;;;;0.40;0.40;;;3.10;95.20;;;;;;5038151;28;20287;-69
2023/03/11 07:17:53;;;;;;;0.40;0.40;;;3.20;95.40;;;;;;5056080;28;20253;-69
2023/03/11 07:20:18;;;;;;;0.40;0.40;;;3.20;95.40;;;;;;5055953;28;20178;-70
2023/03/11 07:22:44;;;;;;;0.40;0.40;;;3.30;95.20;;;;;;5056194;28;20194;-71
2023/03/11 07:25:09;;;;;;;0.40;0.40;;;3.30;94.40;;;;;;5055632;28;20177;-70
2023/03/11 07:27:35;;;;;;;1.43;1.43;;;3.30;94.00;;;;;;5055403;28;20170;-71
2023/03/11 07:30:01;;;;;;;0.40;0.40;;;3.30;94.00;;;;;;5055782;28;20498;-71
2023/03/11 07:32:27;;;;;;;0.50;0.50;;;3.30;93.70;;;;;;5054665;28;20194;-69
2023/03/11 07:34:53;;;;;;;0.40;0.40;;;3.30;94.30;;;;;;5055917;28;20186;-70
2023/03/11 07:37:19;;;;;;;0.50;0.50;;;3.30;94.20;;;;;;5056029;28;20526;-69
2023/03/11 07:39:44;;;;;;;0.50;0.50;;;3.30;94.20;;;;;;5056110;28;20408;-70
2023/03/11 07:42:10;;;;;;;2.20;2.10;;;3.40;94.40;;;;;;5055214;28;20659;-70
2023/03/11 07:44:36;;;;;;;0.40;0.40;;;3.40;94.40;;;;;;5055142;28;20177;-69
2023/03/11 07:47:04;;;;;;;0.40;0.40;;;3.70;94.30;;;;;;5055368;28;20635;-69
2023/03/11 07:49:30;;;;;;;0.40;0.40;;;3.80;94.20;;;;;;5055635;28;20217;-68
2023/03/11 07:51:56;;;;;;;0.30;0.30;;;4.00;94.10;;;;;;5055439;28;20175;-69
2023/03/11 07:54:21;;;;;;;1.23;1.23;;;4.00;93.70;;;;;;5056090;28;20167;-67
2023/03/11 07:56:47;;;;;;;0.43;0.43;;;4.00;93.30;;;;;;5055583;28;20170;-68
2023/03/11 07:59:13;;;;;;;0.40;0.40;;;4.00;93.00;;;;;;5055459;28;20345;-69
2023/03/11 08:01:40;;;;;;;0.50;0.50;;;3.90;93.20;;;;;;5055139;28;20166;-69
2023/03/11 08:04:08;;;;;;;0.52;0.52;;;3.90;93.40;;;;;;5055281;28;20190;-70
2023/03/11 08:06:35;;;;;;;0.40;0.40;;;4.00;93.60;;;;;;5055213;28;20178;-70
2023/03/11 08:09:04;;;;;;;0.40;0.40;;;4.00;93.60;;;;;;5055428;28;20549;-70
2023/03/11 08:11:30;;;;;;;0.40;0.40;;;4.00;93.60;;;;;;5054774;28;20173;-68
2023/03/11 08:13:59;;;;;;;1.38;1.35;;;4.00;93.50;;;;;;5054974;28;20248;-69
2023/03/11 08:16:25;;;;;;;0.40;0.40;;;3.90;93.40;;;;;;5055268;28;20270;-70
2023/03/11 08:18:52;;;;;;;0.40;0.40;;;3.80;93.60;;;;;;5055229;28;20170;-71
2023/03/11 08:21:23;;;;;;;0.40;0.40;;;3.90;94.00;;;;;;5054767;28;20178;-68
2023/03/11 08:23:50;;;;;;;0.45;0.45;;;3.90;94.10;;;;;;5054686;28;20233;-72
2023/03/11 08:26:18;;;;;;;0.40;0.40;;;3.90;94.00;;;;;;5054876;28;20174;-69
2023/03/11 08:28:44;;;;;;;0.40;0.40;;;4.00;94.20;;;;;;5054469;28;20201;-70
2023/03/11 08:31:18;;;;;;;0.40;0.40;;;3.90;94.30;;;;;;5054495;28;20206;-68
2023/03/11 08:33:48;;;;;;;0.30;0.30;;;3.90;94.10;;;;;;5054527;28;20300;-68
2023/03/11 08:36:14;;;;;;;0.55;0.55;;;3.90;94.10;;;;;;5054561;28;20269;-69
2023/03/11 08:38:40;;;;;;;0.40;0.40;;;3.90;93.60;;;;;;5054419;28;20193;-69
2023/03/11 08:41:05;;;;;;;0.40;0.40;;;3.90;93.70;;;;;;5053951;28;20202;-71
2023/03/11 08:43:31;;;;;;;0.40;0.40;;;4.00;93.80;;;;;;5053358;28;20202;-70
2023/03/11 08:46:03;;;;;;;4.80;1.87;;;4.10;93.90;;;;;;5054617;28;20174;-71
2023/03/11 08:48:29;;;;;;;8.15;4.63;;;4.20;93.90;;;;;;5054656;28;20198;-69
2023/03/11 08:50:55;;;;;;;0.90;0.90;;;4.70;93.90;;;;;;5054354;28;20757;-69
2023/03/11 08:53:22;;;;;;;2.03;1.92;;;5.10;92.60;;;;;;5053052;28;20570;-69
2023/03/11 08:55:49;;;;;;;2.15;1.38;;;5.40;91.80;;;;;;5053576;28;20248;-70
2023/03/11 08:58:14;;;;;;;0.38;0.38;;;5.70;91.40;;;;;;5053972;28;20181;-70
2023/03/11 09:00:41;;;;;;;0.80;0.80;;;5.90;90.40;;;;;;5054134;28;20180;-71
2023/03/11 09:03:06;;;;;;;0.40;0.40;;;5.90;90.00;;;;;;5053954;28;20193;-69
2023/03/11 09:05:32;;;;;;;0.40;0.40;;;6.00;89.90;;;;;;5053937;28;20184;-71
2023/03/11 09:07:58;;;;;;;1.40;1.37;;;6.20;90.30;;;;;;5054064;28;20685;-71
2023/03/11 09:10:23;;;;;;;0.53;0.53;;;6.30;89.00;;;;;;5053870;28;20187;-71
2023/03/11 09:12:49;;;;;;;0.50;0.50;;;6.30;88.10;;;;;;5053790;28;20196;-71
2023/03/11 09:15:15;;;;;;;1.03;1.03;;;6.40;87.30;;;;;;5054031;28;20177;-70
2023/03/11 09:17:40;;;;;;;5.32;1.25;;;6.50;86.20;;;;;;5054213;28;20208;-70
2023/03/11 09:20:07;;;;;;;0.40;0.40;;;6.50;86.50;;;;;;5053583;28;20178;-71
2023/03/11 09:22:32;;;;;;;0.50;0.50;;;6.90;85.90;;;;;;5053436;28;20217;-70
2023/03/11 09:24:58;;;;;;;0.40;0.40;;;7.20;83.50;;;;;;5053874;28;20206;-70
2023/03/11 09:27:24;;;;;;;0.50;0.50;;;7.40;82.30;;;;;;5053776;28;20173;-71
2023/03/11 09:29:49;;;;;;;0.30;0.30;;;7.50;82.10;;;;;;5054056;28;20177;-69
2023/03/11 09:32:15;;;;;;;0.40;0.40;;;7.70;81.00;;;;;;5053842;28;20206;-70
2023/03/11 09:34:41;;;;;;;0.63;0.63;;;7.90;81.70;;;;;;5053382;28;20194;-71
2023/03/11 09:37:07;;;;;;;0.40;0.40;;;8.70;81.20;;;;;;5053529;28;20178;-70
2023/03/11 09:39:33;;;;;;;0.70;0.70;;;10.10;76.70;;;;;;5053643;28;20882;-70
2023/03/11 09:42:19;;;;;;;0.40;0.40;;;11.80;70.90;;;;;;5053406;28;20414;-70
2023/03/11 09:45:23;;;;;;;0.63;0.63;;;12.70;62.60;;;;;;5053899;28;20276;-71
2023/03/11 09:48:00;;;;;;;0.47;0.47;;;12.90;57.90;;;;;;5053312;28;20528;-71
2023/03/11 09:50:55;;;;;;;1.17;0.63;;;12.40;56.40;;;;;;5053430;28;20469;-71
2023/03/11 09:53:42;;;;;;;0.40;0.40;;;11.50;56.10;;;;;;5044414;28;20488;-69
2023/03/11 09:56:17;;;;;;;0.40;0.40;;;10.90;57.90;;;;;;5053086;28;20470;-70
2023/03/11 09:58:54;;;;;;;0.30;0.30;;;10.50;57.70;;;;;;5053534;28;20809;-70
2023/03/11 10:01:33;;;;;;;1.13;0.40;;;10.20;58.20;;;;;;5053185;28;20915;-70
2023/03/11 10:04:33;;;;;;;0.80;0.80;;;9.50;61.80;;;;;;5053010;28;20757;-70
2023/03/11 10:07:00;;;;;;;0.40;0.40;;;8.80;63.80;;;;;;5054529;28;20657;-68
2023/03/11 10:09:47;;;;;;;0.50;0.50;;;8.20;66.60;;;;;;5057396;28;20202;-69
2023/03/11 10:12:37;;;;;;;4.40;4.13;;;8.00;69.30;;;;;;5056928;28;20268;-70
2023/03/11 10:15:20;;;;;;;30.45;8.70;;;7.90;69.60;;;;;;5057003;28;20166;-70
2023/03/11 10:17:58;;;;;;;0.85;0.65;;;7.80;70.60;;;;;;5057481;28;20177;-69
2023/03/11 10:20:41;;;;;;;0.70;0.60;;;7.80;71.70;;;;;;5057445;28;20177;-70
2023/03/11 10:23:18;;;;;;;0.73;0.68;;;7.60;72.00;;;;;;5057139;28;20194;-69
2023/03/11 10:26:12;;;;;;;2.42;1.05;;;7.50;72.90;;;;;;5057083;28;20174;-70
2023/03/11 10:28:38;;;;;;;1.33;1.20;;;7.40;73.20;;;;;;5057399;28;20285;-70
2023/03/11 10:31:23;;;;;;;0.40;0.40;;;7.40;72.50;;;;;;5056744;28;20695;-69
2023/03/11 10:33:57;;;;;;;0.40;0.40;;;7.30;73.20;;;;;;5056598;28;20201;-69
2023/03/11 10:36:26;;;;;;;0.50;0.50;;;7.10;73.10;;;;;;5039338;28;20693;-70
2023/03/11 10:38:54;;;;;;;0.82;0.70;;;7.40;74.50;;;;;;5057187;28;20631;-70
2023/03/11 10:41:50;;;;;;;2.90;1.33;;;7.80;73.00;;;;;;5056658;28;20585;-69
2023/03/11 10:44:36;;;;;;;1.42;1.40;;;8.30;71.90;;;;;;5056621;28;20227;-70
2023/03/11 10:47:02;;;;;;;0.52;0.52;;;8.80;70.20;;;;;;5056652;28;20177;-70
2023/03/11 10:49:28;;;;;;;0.52;0.52;;;9.00;70.40;;;;;;5056990;28;20386;-69
2023/03/11 10:51:55;;;;;;;0.38;0.38;;;9.60;69.10;;;;;;5055983;28;20166;-70
2023/03/11 10:54:25;;;;;;;0.47;0.47;;;10.10;65.40;;;;;;5037765;28;20638;-70
2023/03/11 10:56:57;;;;;;;0.52;0.52;;;10.00;64.90;;;;;;5056384;28;20526;-69
2023/03/11 10:59:29;;;;;;;1.20;1.20;;;10.10;64.70;;;;;;5056303;28;20250;-70
2023/03/11 11:02:00;;;;;;;3.40;3.13;;;9.80;66.90;;;;;;5055856;28;20405;-70
2023/03/11 11:04:33;;;;;;;1.08;0.98;;;9.30;66.60;;;;;;5056261;28;20438;-70
2023/03/11 11:07:39;;;;;;;0.50;0.50;;;8.60;67.80;;;;;;5056210;28;20170;-70
2023/03/11 11:10:11;;;;;;;2.25;1.20;;;8.20;71.10;;;;;;5056210;28;20174;-70
2023/03/11 11:13:09;;;;;;;0.60;0.60;;;8.00;70.70;;;;;;5056074;28;20190;-70
2023/03/11 11:15:40;;;;;;;1.27;0.70;;;8.10;71.50;;;;;;5055933;28;20178;-70
2023/03/11 11:18:16;;;;;;;0.50;0.50;;;7.90;69.70;;;;;;5055380;28;20179;-70
2023/03/11 11:21:29;;;;;;;5.28;4.85;;;7.50;70.00;;;;;;5055584;28;20178;-69
2023/03/11 11:24:03;;;;;;;0.50;0.50;;;7.40;73.10;;;;;;5051651;28;20197;-70
2023/03/11 11:26:29;;;;;;;0.70;0.70;;;7.40;73.70;;;;;;5055832;28;20166;-69
2023/03/11 11:29:13;;;;;;;2.50;2.40;;;6.90;75.30;;;;;;5055684;28;20208;-69
2023/03/11 11:31:45;;;;;;;2.45;1.58;;;6.90;77.10;;;;;;5055514;28;20256;-70
2023/03/11 11:34:33;;;;;;;1.90;1.30;;;6.90;77.40;;;;;;5055552;28;20261;-69
2023/03/11 11:37:03;;;;;;;0.40;0.40;;;6.90;79.30;;;;;;5055701;28;20162;-69
2023/03/11 11:39:50;;;;;;;0.80;0.77;;;6.80;79.40;;;;;;5055595;28;20201;-69
2023/03/11 11:42:17;;;;;;;0.40;0.40;;;6.80;80.40;;;;;;5055165;28;20234;-69
2023/03/11 11:44:49;;;;;;;0.57;0.55;;;6.50;81.50;;;;;;5055494;28;20335;-69
2023/03/11 11:47:25;;;;;;;0.40;0.40;;;6.10;82.20;;;;;;5055590;28;20172;-69
2023/03/11 11:49:57;;;;;;;0.60;0.60;;;5.90;83.90;;;;;;5037390;28;20629;-69
2023/03/11 11:52:36;;;;;;;0.50;0.50;;;5.90;84.10;;;;;;5054988;28;20219;-70
2023/03/11 11:55:25;;;;;;;1.13;1.13;;;5.80;83.70;;;;;;5053292;28;20184;-69
2023/03/11 11:57:51;;;;;;;0.82;0.82;;;5.80;84.10;;;;;;5054456;28;20186;-69
2023/03/11 12:00:19;;;;;;;1.40;1.00;;;5.80;84.10;;;;;;5036620;28;20658;-70
2023/03/11 12:03:24;;;;;;;0.68;0.68;;;5.80;84.00;;;;;;5055023;28;20514;-70
2023/03/11 12:05:59;;;;;;;1.83;1.73;;;5.80;83.20;;;;;;5037304;28;20194;-69
2023/03/11 12:08:39;;;;;;;1.60;1.60;;;5.80;84.00;;;;;;5054968;28;20287;-69
2023/03/11 12:11:15;;;;;;;0.50;0.50;;;6.00;83.80;;;;;;5054758;28;20222;-69
2023/03/11 12:13:59;;;;;;;5.07;1.95;;;5.90;83.20;;;;;;5055052;28;20590;-69
2023/03/11 12:16:46;;;;;;;1.10;1.08;;;5.60;83.60;;;;;;5037044;28;20175;-69
2023/03/11 12:19:22;;;;;;;0.60;0.60;;;5.80;84.70;;;;;;5054702;28;20181;-69
2023/03/11 12:22:10;;;;;;;0.93;0.93;;;5.90;85.10;;;;;;5054555;28;20174;-70
2023/03/11 12:25:10;;;;;;;1.00;1.00;;;5.90;85.20;;;;;;5054636;28;20584;-70
2023/03/11 12:28:17;;;;;;;2.33;1.58;;;5.90;85.60;;;;;;5038426;28;20190;-69
2023/03/11 12:30:55;;;;;;;1.67;0.52;;;6.00;84.90;;;;;;5019981;28;20205;-69
2023/03/11 12:33:28;;;;;;;1.00;1.00;;;5.80;84.70;;;;;;5054137;28;20206;-69
2023/03/11 12:35:57;;;;;;;1.25;0.60;;;5.50;85.90;;;;;;5054760;28;20249;-69
2023/03/11 12:38:33;;;;;;;0.98;0.70;;;5.50;88.00;;;;;;5054343;28;20184;-70
2023/03/11 12:41:05;;;;;;;1.45;1.23;;;5.60;88.30;;;;;;5054256;28;20184;-69
2023/03/11 12:43:34;;;;;;;4.20;2.05;;;5.80;88.10;;;;;;5054409;28;20194;-70
2023/03/11 12:46:09;;;;;;;0.80;0.80;;;5.90;87.50;;;;;;5054179;28;20177;-70
2023/03/11 12:49:06;;;;;;;0.98;0.98;;;5.70;85.80;;;;;;5054024;28;20612;-70
2023/03/11 12:51:33;;;;;;;2.33;2.22;;;5.70;86.10;;;;;;5036191;28;20256;-70
2023/03/11 12:54:30;;;;;;;0.80;0.80;;;5.80;85.70;;;;;;5053953;28;20184;-69
2023/03/11 12:57:19;;;;;;;0.60;0.60;;;5.60;86.10;;;;;;5054181;28;20219;-69
2023/03/11 13:00:07;;;;;;;1.55;0.70;;;5.70;87.40;;;;;;5034070;28;20186;-69
2023/03/11 13:02:50;;;;;;;1.13;1.13;;;5.70;86.70;;;;;;5053775;28;20183;-69
2023/03/11 13:05:37;;;;;;;0.60;0.60;;;5.60;86.60;;;;;;5053649;28;20596;-69
2023/03/11 13:08:15;;;;;;;0.40;0.40;;;5.60;88.10;;;;;;5053858;28;20663;-69
2023/03/11 13:10:45;;;;;;;0.88;0.88;;;5.60;86.80;;;;;;5053813;28;20226;-69
2023/03/11 13:13:32;;;;;;;0.57;0.57;;;5.80;86.50;;;;;;5053763;28;20696;-69